createdAt,value
2022-12-23T00:01:37.928Z,9.00
2022-12-23T00:04:15.075Z,9.00
2022-12-23T00:06:51.659Z,9.00
2022-12-23T00:09:29.093Z,9.10
2022-12-23T00:12:22.980Z,9.10
2022-12-23T00:15:08.720Z,9.10
2022-12-23T00:17:48.657Z,9.10
2022-12-23T00:20:26.201Z,9.10
2022-12-23T00:23:09.351Z,9.10
2022-12-23T00:25:50.061Z,9.10
2022-12-23T00:28:28.484Z,9.10
2022-12-23T00:31:09.213Z,9.10
2022-12-23T00:33:47.329Z,9.04
2022-12-23T00:36:27.736Z,9.00
2022-12-23T00:39:22.576Z,9.04
2022-12-23T00:42:30.603Z,9.00
2022-12-23T00:45:18.007Z,9.02
2022-12-23T00:48:11.788Z,9.00
2022-12-23T00:50:47.855Z,9.00
2022-12-23T00:53:24.725Z,9.00
2022-12-23T00:56:01.245Z,9.00
2022-12-23T00:58:38.503Z,9.00
2022-12-23T01:01:47.021Z,9.00
2022-12-23T01:04:41.191Z,9.00
2022-12-23T01:07:17.999Z,9.00
2022-12-23T01:09:54.671Z,9.04
2022-12-23T01:12:31.649Z,9.06
2022-12-23T01:15:10.581Z,9.00
2022-12-23T01:17:47.933Z,9.02
2022-12-23T01:20:24.435Z,9.10
2022-12-23T01:23:01.278Z,9.10
2022-12-23T01:25:38.189Z,9.10
2022-12-23T01:28:14.834Z,9.10
2022-12-23T01:30:51.364Z,9.12
2022-12-23T01:33:28.642Z,9.10
2022-12-23T01:36:11.093Z,9.10
2022-12-23T01:38:47.902Z,9.00
2022-12-23T01:41:45.772Z,9.00
2022-12-23T01:45:16.480Z,9.10
2022-12-23T01:47:59.740Z,9.18
2022-12-23T01:50:42.841Z,9.20
2022-12-23T01:53:26.204Z,9.10
2022-12-23T01:56:07.619Z,9.10
2022-12-23T01:58:46.775Z,9.20
2022-12-23T02:01:41.251Z,9.20
2022-12-23T02:04:23.097Z,9.20
2022-12-23T02:07:16.751Z,9.20
2022-12-23T02:09:53.301Z,9.20
2022-12-23T02:12:51.817Z,9.20
2022-12-23T02:16:01.460Z,9.20
2022-12-23T02:19:16.374Z,9.10
2022-12-23T02:22:21.777Z,9.10
2022-12-23T02:25:40.325Z,9.16
2022-12-23T02:28:48.090Z,9.20
2022-12-23T02:31:37.207Z,9.12
2022-12-23T02:34:22.869Z,9.10
2022-12-23T02:37:07.299Z,9.10
2022-12-23T02:39:54.383Z,9.10
2022-12-23T02:42:39.547Z,9.10
2022-12-23T02:45:23.802Z,9.10
2022-12-23T02:48:07.559Z,9.10
2022-12-23T02:50:47.348Z,9.10
2022-12-23T02:53:33.997Z,9.10
2022-12-23T02:56:15.394Z,9.10
2022-12-23T02:58:56.788Z,9.10
2022-12-23T03:01:37.754Z,9.10
2022-12-23T03:04:14.388Z,9.10
2022-12-23T03:06:55.269Z,9.10
2022-12-23T03:09:44.885Z,9.10
2022-12-23T03:12:41.430Z,9.10
2022-12-23T03:15:35.950Z,9.00
2022-12-23T03:18:24.780Z,9.00
2022-12-23T03:21:08.135Z,9.00
2022-12-23T03:23:55.683Z,9.10
2022-12-23T03:26:42.435Z,9.10
2022-12-23T03:29:28.169Z,9.00
2022-12-23T03:32:10.579Z,9.00
2022-12-23T03:34:53.085Z,9.00
2022-12-23T03:37:34.809Z,9.00
2022-12-23T03:40:20.804Z,9.00
2022-12-23T03:43:04.838Z,9.00
2022-12-23T03:45:47.696Z,9.00
2022-12-23T03:48:31.021Z,9.00
2022-12-23T03:51:14.937Z,9.00
2022-12-23T03:53:59.395Z,9.00
2022-12-23T03:56:43.021Z,9.00
2022-12-23T03:59:25.783Z,9.00
2022-12-23T04:02:14.124Z,9.00
2022-12-23T04:05:16.071Z,8.90
2022-12-23T04:08:01.321Z,8.82
2022-12-23T04:10:38.450Z,8.90
2022-12-23T04:13:15.107Z,8.90
2022-12-23T04:15:52.666Z,8.90
2022-12-23T04:18:28.751Z,8.90
2022-12-23T04:21:06.048Z,8.90
2022-12-23T04:23:42.902Z,8.90
2022-12-23T04:26:19.707Z,9.00
2022-12-23T04:28:56.605Z,9.00
2022-12-23T04:31:33.053Z,9.00
2022-12-23T04:34:10.659Z,9.00
2022-12-23T04:36:47.356Z,9.00
2022-12-23T04:39:24.746Z,9.06
2022-12-23T04:42:01.485Z,9.10
2022-12-23T04:44:38.410Z,9.20
2022-12-23T04:47:14.846Z,9.20
2022-12-23T04:49:51.957Z,9.10
2022-12-23T04:52:29.157Z,9.10
2022-12-23T04:55:05.980Z,9.00
2022-12-23T04:57:42.899Z,9.00
2022-12-23T05:00:26.110Z,9.00
2022-12-23T05:03:03.576Z,9.10
2022-12-23T05:05:45.405Z,9.04
2022-12-23T05:08:23.307Z,9.00
2022-12-23T05:10:59.898Z,9.10
2022-12-23T05:13:36.837Z,9.10
2022-12-23T05:16:16.764Z,9.08
2022-12-23T05:18:53.328Z,9.02
2022-12-23T05:21:30.042Z,9.00
2022-12-23T05:24:08.958Z,9.00
2022-12-23T05:26:48.082Z,9.00
2022-12-23T05:29:24.939Z,8.98
2022-12-23T05:32:01.764Z,9.00
2022-12-23T05:34:38.411Z,8.98
2022-12-23T05:37:15.193Z,8.96
2022-12-23T05:39:52.126Z,8.96
2022-12-23T05:42:29.145Z,9.00
2022-12-23T05:45:06.855Z,9.00
2022-12-23T05:47:43.386Z,9.00
2022-12-23T05:50:22.130Z,9.00
2022-12-23T05:52:59.245Z,9.00
2022-12-23T05:55:35.572Z,9.00
2022-12-23T05:58:12.438Z,9.00
2022-12-23T06:00:49.615Z,9.00
2022-12-23T06:03:27.114Z,9.08
2022-12-23T06:06:04.601Z,9.00
2022-12-23T06:08:42.377Z,9.00
2022-12-23T06:11:18.958Z,9.00
2022-12-23T06:13:55.771Z,9.00
2022-12-23T06:16:32.601Z,9.00
2022-12-23T06:19:10.997Z,9.02
2022-12-23T06:21:47.037Z,9.10
2022-12-23T06:24:23.529Z,9.10
2022-12-23T06:26:59.804Z,9.08
2022-12-23T06:29:36.239Z,9.00
2022-12-23T06:32:15.321Z,9.10
2022-12-23T06:34:53.684Z,9.06
2022-12-23T06:37:30.075Z,9.02
2022-12-23T06:40:06.871Z,9.10
2022-12-23T06:42:42.959Z,9.10
2022-12-23T06:45:21.103Z,9.10
2022-12-23T06:47:57.375Z,9.20
2022-12-23T06:50:33.327Z,9.20
2022-12-23T06:53:09.669Z,9.20
2022-12-23T06:55:46.115Z,9.20
2022-12-23T06:58:22.550Z,9.20
2022-12-23T07:00:59.560Z,9.20
2022-12-23T07:03:36.124Z,9.20
2022-12-23T07:06:14.907Z,9.20
2022-12-23T07:08:51.185Z,9.28
2022-12-23T07:11:28.388Z,9.20
2022-12-23T07:14:05.158Z,9.20
2022-12-23T07:16:42.798Z,9.10
2022-12-23T07:19:20.143Z,9.10
2022-12-23T07:21:56.923Z,9.10
2022-12-23T07:24:34.341Z,9.10
2022-12-23T07:27:11.873Z,9.16
2022-12-23T07:29:48.514Z,9.20
2022-12-23T07:32:25.742Z,9.20
2022-12-23T07:35:02.241Z,9.20
2022-12-23T07:37:39.019Z,9.20
2022-12-23T07:40:20.337Z,9.20
2022-12-23T07:43:00.084Z,9.20
2022-12-23T07:45:37.635Z,9.20
2022-12-23T07:48:15.043Z,9.30
2022-12-23T07:50:51.536Z,9.30
2022-12-23T07:53:28.842Z,9.26
2022-12-23T07:56:06.689Z,9.24
2022-12-23T07:58:43.803Z,9.22
2022-12-23T08:01:20.388Z,9.22
2022-12-23T08:03:57.013Z,9.20
2022-12-23T08:06:34.226Z,9.20
2022-12-23T08:09:12.068Z,9.20
2022-12-23T08:11:48.480Z,9.22
2022-12-23T08:14:25.643Z,9.30
2022-12-23T08:17:02.142Z,9.30
2022-12-23T08:19:39.044Z,9.30
2022-12-23T08:22:14.975Z,9.30
2022-12-23T08:24:52.835Z,9.30
2022-12-23T08:27:30.219Z,9.38
2022-12-23T08:30:07.868Z,9.30
2022-12-23T08:32:44.583Z,9.30
2022-12-23T08:35:21.929Z,9.30
2022-12-23T08:37:59.233Z,9.30
2022-12-23T08:40:36.036Z,9.30
2022-12-23T08:43:12.548Z,9.30
2022-12-23T08:45:49.803Z,9.30
2022-12-23T08:48:26.773Z,9.38
2022-12-23T08:51:08.839Z,9.40
2022-12-23T08:53:46.756Z,9.40
2022-12-23T08:56:26.883Z,9.40
2022-12-23T08:59:03.323Z,9.40
2022-12-23T09:01:41.522Z,9.40
2022-12-23T09:04:18.600Z,9.40
2022-12-23T09:06:54.001Z,9.40
2022-12-23T09:09:29.848Z,9.50
2022-12-23T09:12:07.220Z,9.50
2022-12-23T09:14:43.672Z,9.50
2022-12-23T09:17:20.111Z,9.50
2022-12-23T09:19:56.923Z,9.60
2022-12-23T09:22:34.775Z,9.60
2022-12-23T09:25:14.385Z,9.60
2022-12-23T09:27:51.278Z,9.60
2022-12-23T09:30:28.010Z,9.60
2022-12-23T09:33:04.614Z,9.58
2022-12-23T09:35:40.819Z,9.60
2022-12-23T09:38:17.076Z,9.60
2022-12-23T09:40:53.689Z,9.70
2022-12-23T09:43:45.315Z,9.70
2022-12-23T09:46:27.846Z,9.70
2022-12-23T09:49:12.858Z,9.70
2022-12-23T09:51:49.547Z,9.70
2022-12-23T09:54:29.133Z,9.70
2022-12-23T09:57:12.668Z,9.70
2022-12-23T10:00:08.471Z,9.70
2022-12-23T10:03:23.204Z,9.70
2022-12-23T10:06:11.663Z,9.70
2022-12-23T10:08:55.807Z,9.72
2022-12-23T10:11:39.501Z,9.80
2022-12-23T10:14:25.456Z,9.80
2022-12-23T10:17:07.354Z,9.80
2022-12-23T10:19:49.394Z,9.80
2022-12-23T10:22:35.611Z,9.80
2022-12-23T10:25:19.801Z,9.80
2022-12-23T10:27:55.891Z,9.80
2022-12-23T10:31:05.696Z,9.90
2022-12-23T10:33:50.324Z,9.90
2022-12-23T10:36:42.161Z,9.98
2022-12-23T10:39:30.302Z,10.00
2022-12-23T10:42:23.527Z,10.00
2022-12-23T10:45:30.873Z,10.00
2022-12-23T10:48:28.959Z,10.00
2022-12-23T10:51:12.517Z,10.00
2022-12-23T10:53:54.502Z,10.00
2022-12-23T10:56:33.616Z,10.00
2022-12-23T10:59:14.528Z,10.00
2022-12-23T11:02:00.340Z,10.10
2022-12-23T11:04:41.694Z,10.20
2022-12-23T11:10:28.732Z,10.30
2022-12-23T11:13:05.817Z,10.30
2022-12-23T11:15:44.719Z,10.30
2022-12-23T11:18:26.210Z,10.30
2022-12-23T11:21:19.552Z,10.30
2022-12-23T11:24:20.058Z,10.26
2022-12-23T11:27:05.571Z,10.22
2022-12-23T11:29:48.351Z,10.20
2022-12-23T11:32:28.868Z,10.20
2022-12-23T11:35:05.507Z,10.30
2022-12-23T11:37:46.703Z,10.30
2022-12-23T11:40:32.227Z,10.40
2022-12-23T11:43:16.880Z,10.40
2022-12-23T11:46:28.695Z,10.40
2022-12-23T11:49:34.843Z,10.40
2022-12-23T11:52:20.175Z,10.40
2022-12-23T11:54:59.996Z,10.40
2022-12-23T11:57:45.283Z,10.40
2022-12-23T12:00:32.595Z,10.40
2022-12-23T12:03:18.642Z,10.40
2022-12-23T12:06:00.927Z,10.30
2022-12-23T12:08:42.832Z,10.30
2022-12-23T12:11:28.426Z,10.30
2022-12-23T12:14:09.245Z,10.30
2022-12-23T12:17:01.615Z,10.40
2022-12-23T12:19:49.921Z,10.40
2022-12-23T12:22:42.736Z,10.50
2022-12-23T12:25:39.561Z,10.50
2022-12-23T12:28:23.616Z,10.50
2022-12-23T12:31:14.564Z,10.50
2022-12-23T12:34:02.250Z,10.50
2022-12-23T12:36:51.079Z,10.50
2022-12-23T12:39:36.792Z,10.42
2022-12-23T12:42:23.756Z,10.40
2022-12-23T12:45:12.806Z,10.40
2022-12-23T12:48:16.005Z,10.40
2022-12-23T12:51:08.084Z,10.50
2022-12-23T12:54:02.743Z,10.50
2022-12-23T12:56:49.570Z,10.60
2022-12-23T12:59:29.165Z,10.60
2022-12-23T13:02:47.921Z,10.60
2022-12-23T13:05:54.463Z,10.60
2022-12-23T13:09:04.772Z,10.60
2022-12-23T13:11:52.832Z,10.50
2022-12-23T13:14:46.675Z,10.50
2022-12-23T13:17:28.988Z,10.44
2022-12-23T13:20:17.806Z,10.50
2022-12-23T13:23:26.937Z,10.50
2022-12-23T13:26:12.873Z,10.60
2022-12-23T13:28:59.074Z,10.60
2022-12-23T13:31:51.127Z,10.70
2022-12-23T13:34:44.039Z,10.70
2022-12-23T13:37:35.987Z,10.70
2022-12-23T13:40:33.604Z,10.70
2022-12-23T13:43:18.763Z,10.70
2022-12-23T13:45:58.191Z,10.70
2022-12-23T13:48:50.619Z,10.70
2022-12-23T13:51:36.645Z,10.70
2022-12-23T13:54:30.558Z,10.70
2022-12-23T17:33:36.872Z,9.20
2022-12-23T17:36:14.882Z,9.20
2022-12-23T17:38:51.503Z,9.20
2022-12-23T17:41:33.030Z,9.30
2022-12-23T17:44:10.553Z,9.30
2022-12-23T17:46:46.769Z,9.30
2022-12-23T17:49:22.598Z,9.20
2022-12-23T17:51:59.260Z,9.20
2022-12-23T17:54:36.551Z,9.20
2022-12-23T17:57:23.080Z,9.20
2022-12-23T18:00:01.406Z,9.20
2022-12-23T18:02:38.804Z,9.10
2022-12-23T18:05:25.865Z,9.10
2022-12-23T18:08:06.365Z,9.10
2022-12-23T18:10:44.609Z,9.04
2022-12-23T18:13:24.253Z,9.00
2022-12-23T18:16:00.349Z,9.00
2022-12-23T18:18:45.895Z,9.00
2022-12-23T18:21:29.332Z,9.00
2022-12-23T18:24:09.279Z,9.06
2022-12-23T18:26:45.541Z,9.06
2022-12-23T18:29:22.337Z,9.10
2022-12-23T18:31:58.843Z,9.08
2022-12-23T18:34:35.990Z,9.10
2022-12-23T18:37:14.315Z,9.00
2022-12-23T18:39:51.452Z,9.00
2022-12-23T18:42:27.783Z,9.02
2022-12-23T18:45:04.357Z,9.08
2022-12-23T18:47:41.131Z,9.00
2022-12-23T18:50:19.737Z,9.00
2022-12-23T18:52:55.859Z,8.96
2022-12-23T18:55:32.570Z,8.92
2022-12-23T18:58:09.028Z,9.00
2022-12-23T19:00:46.343Z,9.00
2022-12-23T19:03:30.668Z,9.00
2022-12-23T19:06:10.897Z,9.06
2022-12-23T19:08:49.196Z,9.10
2022-12-23T19:11:27.727Z,9.00
2022-12-23T19:14:05.578Z,9.10
2022-12-23T19:16:46.064Z,9.10
2022-12-23T19:19:28.080Z,9.10
2022-12-23T19:22:04.684Z,9.10
2022-12-23T19:24:58.159Z,9.20
2022-12-23T19:27:39.024Z,9.20
2022-12-23T19:30:21.311Z,9.30
2022-12-23T19:32:59.936Z,9.30
2022-12-23T19:35:36.470Z,9.30
2022-12-23T19:38:14.762Z,9.30
2022-12-23T19:41:01.523Z,9.30
2022-12-23T19:43:38.194Z,9.32
2022-12-23T19:46:17.885Z,9.40
2022-12-23T19:48:57.109Z,9.40
2022-12-23T19:51:33.189Z,9.40
2022-12-23T19:54:10.365Z,9.40
2022-12-23T19:56:47.536Z,9.40
2022-12-23T19:59:24.113Z,9.40
2022-12-23T20:02:00.855Z,9.40
2022-12-23T20:04:37.539Z,9.50
2022-12-23T20:07:14.371Z,9.50
2022-12-23T20:09:51.288Z,9.50
2022-12-23T20:12:28.530Z,9.50
2022-12-23T20:15:05.524Z,9.50
2022-12-23T20:17:43.026Z,9.50
2022-12-23T20:20:20.832Z,9.50
2022-12-23T20:22:57.353Z,9.48
2022-12-23T20:25:34.013Z,9.50
2022-12-23T20:28:12.116Z,9.50
2022-12-23T20:30:50.477Z,9.50
2022-12-23T20:33:28.934Z,9.56
2022-12-23T20:36:05.587Z,9.60
2022-12-23T20:38:45.907Z,9.58
2022-12-23T20:41:26.009Z,9.52
2022-12-23T20:44:33.811Z,9.60
2022-12-23T20:46:59.608Z,9.60
2022-12-23T20:49:36.328Z,9.60
2022-12-23T20:52:13.989Z,9.60
2022-12-23T20:54:49.852Z,9.54
2022-12-23T20:57:26.995Z,9.50
2022-12-23T21:00:05.074Z,9.50
2022-12-23T21:02:42.573Z,9.48
2022-12-23T21:05:19.996Z,9.50
2022-12-23T21:07:56.697Z,9.50
2022-12-23T21:10:32.768Z,9.60
2022-12-23T21:13:09.713Z,9.60
2022-12-23T21:15:46.015Z,9.60
2022-12-23T21:18:23.062Z,9.60
2022-12-23T21:21:03.550Z,9.62
2022-12-23T21:23:45.432Z,9.62
2022-12-23T21:26:24.963Z,9.60
2022-12-23T21:29:06.467Z,9.60
2022-12-23T21:31:44.476Z,9.60
2022-12-23T21:34:21.536Z,9.60
2022-12-23T21:36:58.554Z,9.70
2022-12-23T21:39:36.423Z,9.70
2022-12-23T21:42:13.077Z,9.60
2022-12-23T21:44:49.945Z,9.60
2022-12-23T21:47:27.237Z,9.50
2022-12-23T21:50:03.281Z,9.50
2022-12-23T21:52:40.938Z,9.50
2022-12-23T21:55:19.651Z,9.46
2022-12-23T21:57:57.932Z,9.50
2022-12-23T22:00:35.629Z,9.60
2022-12-23T22:03:12.621Z,9.60
2022-12-23T22:05:48.884Z,9.60
2022-12-23T22:08:26.167Z,9.60
2022-12-23T22:11:02.759Z,9.52
2022-12-23T22:13:38.868Z,9.50
2022-12-23T22:16:21.044Z,9.50
2022-12-23T22:18:58.805Z,9.50
2022-12-23T22:21:37.255Z,9.50
2022-12-23T22:24:14.385Z,9.50
2022-12-23T22:26:50.263Z,9.50
2022-12-23T22:29:26.815Z,9.40
2022-12-23T22:32:03.216Z,9.40
2022-12-23T22:34:39.810Z,9.40
2022-12-23T22:37:17.055Z,9.50
2022-12-23T22:39:53.944Z,9.56
2022-12-23T22:42:30.517Z,9.60
2022-12-23T22:45:09.583Z,9.60
2022-12-23T22:47:47.112Z,9.60
2022-12-23T22:50:23.648Z,9.60
2022-12-23T22:53:00.572Z,9.50
2022-12-23T22:55:36.964Z,9.50
2022-12-23T22:58:13.038Z,9.50
2022-12-23T23:00:50.338Z,9.50
2022-12-23T23:03:28.117Z,9.54
2022-12-23T23:06:09.107Z,9.60
2022-12-23T23:08:46.923Z,9.62
2022-12-23T23:11:23.907Z,9.60
2022-12-23T23:14:01.107Z,9.54
2022-12-23T23:16:37.842Z,9.50
2022-12-23T23:19:17.202Z,9.50
2022-12-23T23:21:54.696Z,9.48
2022-12-23T23:24:32.166Z,9.50
2022-12-23T23:27:09.064Z,9.50
2022-12-23T23:29:45.933Z,9.52
2022-12-23T23:32:22.596Z,9.58
2022-12-23T23:35:02.994Z,9.50
2022-12-23T23:37:43.450Z,9.48
2022-12-23T23:40:21.968Z,9.40
2022-12-23T23:42:58.718Z,9.40
2022-12-23T23:45:35.297Z,9.40
2022-12-23T23:48:15.103Z,9.40
2022-12-23T23:50:52.191Z,9.40
2022-12-23T23:53:29.074Z,9.50
2022-12-23T23:56:11.340Z,9.50
2022-12-23T23:58:48.481Z,9.50
